MST,Max TemperatureF,Mean TemperatureF,Min TemperatureF,Max Dew PointF,MeanDew PointF,Min DewpointF,Max Humidity, Mean Humidity, Min Humidity, Max Sea Level PressureIn, Mean Sea Level PressureIn, Min Sea Level PressureIn, Max VisibilityMiles, Mean VisibilityMiles, Min VisibilityMiles, Max Wind SpeedMPH, Mean Wind SpeedMPH, Max Gust SpeedMPH,PrecipitationIn, CloudCover, Events, WindDirDegrees
2012-1-1,36,23,10,27,14,6,88,74,59,30.79,30.65,30.41,10,10,10,14,6,17,0.00,0,,191
2012-1-2,32,19,6,25,14,4,96,84,72,30.83,30.64,30.40,10,10,10,14,6,18,0.00,0,,230
2012-1-3,43,28,12,30,23,10,92,72,51,30.37,30.26,30.15,10,10,10,16,8,17,0.00,0,,242
2012-1-4,38,28,17,30,23,14,92,76,59,30.52,30.41,30.34,10,10,10,15,7,16,0.00,0,,231
2012-1-5,39,30,20,31,23,17,96,83,70,30.33,30.12,29.89,10,10,10,17,7,18,0.00,0,,229
2012-1-6,45,31,17,29,23,14,96,73,49,30.21,30.05,29.88,10,10,10,14,7,16,0.00,0,,220
2012-1-7,37,26,15,28,23,13,91,78,64,30.15,30.07,29.94,10,10,10,22,10,28,0.00,2,,115
2012-1-8,33,23,13,27,22,10,92,82,72,30.36,30.27,30.17,10,10,10,12,5,14,0.00,4,,177
2012-1-9,36,24,11,30,21,11,96,83,69,30.38,30.28,30.15,10,10,9,16,9,20,0.00,0,,232
2012-1-10,39,29,18,31,24,16,92,81,70,30.14,29.97,29.77,10,10,10,13,7,15,0.00,0,,216
2012-1-11,37,28,19,30,25,18,92,81,70,30.20,30.00,29.78,10,10,10,28,10,39,0.00,4,,317
2012-1-12,35,22,9,22,12,4,80,67,53,30.26,30.16,30.04,10,10,10,13,7,15,0.00,1,,249
2012-1-13,37,25,12,26,16,7,85,70,54,30.20,30.15,30.07,10,10,10,13,8,17,0.00,0,,219
2012-1-14,42,26,9,28,19,9,88,71,53,30.34,30.19,30.02,10,10,10,14,6,21,0.00,0,,202
2012-1-15,48,35,22,30,25,17,92,71,49,29.98,29.81,29.70,10,10,10,22,10,26,0.00,0,,223
2012-1-16,41,33,25,29,25,19,81,70,59,30.08,29.74,29.56,10,10,10,24,11,30,0.00,1,,68
2012-1-17,27,18,9,17,13,11,88,72,55,30.37,30.27,30.13,10,10,10,23,7,29,0.00,2,,115
2012-1-18,43,29,14,29,21,13,88,71,53,30.15,29.97,29.77,10,10,10,20,7,24,0.00,0,,254
2012-1-19,45,34,23,33,27,20,88,74,59,29.88,29.78,29.63,10,10,10,17,8,20,0.00,0,,97
2012-1-20,47,36,24,37,28,21,96,81,65,30.11,29.84,29.61,10,9,7,32,5,40,T,2,Rain,118
2012-1-21,51,38,24,37,30,21,88,71,54,30.06,29.60,29.26,10,10,8,18,8,22,0.00,0,,193
2012-1-22,45,36,24,33,27,20,81,65,49,29.99,29.59,29.23,10,10,10,47,19,58,0.00,1,,286
2012-1-23,52,37,22,32,26,19,92,65,38,29.98,29.90,29.81,10,10,10,14,5,17,0.00,0,,101
2012-1-24,48,36,24,31,27,22,92,71,49,30.30,30.04,29.82,10,10,10,22,5,26,0.00,1,,318
2012-1-25,51,37,23,28,25,21,96,66,35,30.27,30.12,29.96,10,10,10,16,7,18,0.00,0,,239
2012-1-26,51,39,27,29,26,23,85,61,36,30.20,29.97,29.70,10,10,10,17,8,22,0.00,0,,215
2012-1-27,48,38,27,32,23,17,82,58,33,30.40,30.05,29.69,10,10,10,33,12,41,0.00,5,,339
2012-1-28,45,32,19,21,17,9,92,58,24,30.40,30.34,30.24,10,10,10,13,5,16,0.00,0,,185
2012-1-29,58,39,20,31,23,17,91,58,24,30.33,30.18,30.00,10,10,10,14,7,18,0.00,0,,246
2012-1-30,68,48,27,31,27,22,85,52,18,29.99,29.84,29.69,10,10,10,15,8,18,0.00,0,,229
2012-1-31,53,41,28,28,23,17,82,53,24,30.09,30.01,29.78,10,10,10,13,7,16,0.00,0,,179